createdAt,value
2023-01-17T07:44:41.410Z,2.34
2023-01-17T07:45:40.261Z,2.17
2023-01-17T07:46:40.338Z,2.19
2023-01-17T07:47:40.252Z,2.26
2023-01-17T07:48:40.231Z,2.20
2023-01-17T07:49:40.232Z,2.31
2023-01-17T07:50:40.231Z,2.30
2023-01-17T07:51:40.207Z,2.33
2023-01-17T07:52:40.172Z,2.26
2023-01-17T07:53:40.220Z,2.44
2023-01-17T07:54:40.195Z,2.35
2023-01-17T07:55:40.156Z,2.45
2023-01-17T07:56:40.145Z,2.38
2023-01-17T07:57:40.122Z,2.45
2023-01-17T07:58:40.134Z,2.46
2023-01-17T07:59:40.098Z,2.52
2023-01-17T08:00:40.168Z,2.56
2023-01-17T08:01:40.180Z,2.55
2023-01-17T08:02:40.064Z,2.67
2023-01-17T08:03:40.303Z,2.56
2023-01-17T08:04:40.045Z,2.58
2023-01-17T08:05:40.147Z,2.69
2023-01-17T08:06:40.049Z,2.67
2023-01-17T08:07:40.118Z,2.69
2023-01-17T08:08:40.127Z,2.63
2023-01-17T08:09:40.000Z,2.69
2023-01-17T08:10:39.972Z,2.70
2023-01-17T08:11:39.990Z,2.79
2023-01-17T08:12:39.957Z,2.76
2023-01-17T08:13:39.941Z,2.67
2023-01-17T08:14:39.943Z,2.76
2023-01-17T08:15:39.920Z,2.79
2023-01-17T08:16:40.068Z,2.84
2023-01-17T08:17:39.915Z,2.82
2023-01-17T08:18:39.879Z,2.81
2023-01-17T08:19:39.890Z,2.82
2023-01-17T08:20:39.878Z,2.84
2023-01-17T08:21:39.867Z,2.81
2023-01-17T08:22:39.841Z,2.94
2023-01-17T08:23:39.848Z,2.91
2023-01-17T08:24:39.832Z,2.87
2023-01-17T08:25:39.807Z,2.89
2023-01-17T08:26:39.825Z,2.94
2023-01-17T08:27:39.797Z,2.97
2023-01-17T08:28:39.770Z,2.98
2023-01-17T08:29:39.770Z,2.97
2023-01-17T08:30:39.760Z,2.97
2023-01-17T08:31:39.853Z,3.02
2023-01-17T08:32:39.745Z,3.00
2023-01-17T08:33:39.728Z,3.09
2023-01-17T08:34:39.714Z,3.09
2023-01-17T08:35:39.740Z,3.16
2023-01-17T08:36:39.699Z,3.12
2023-01-17T08:37:39.685Z,3.10
2023-01-17T08:38:39.672Z,3.10
2023-01-17T08:39:39.659Z,3.20
2023-01-17T08:40:39.654Z,3.25
2023-01-17T08:41:39.647Z,3.30
2023-01-17T08:42:39.623Z,3.28
2023-01-17T08:43:39.604Z,3.30
2023-01-17T08:44:39.607Z,3.36
2023-01-17T08:45:39.625Z,3.30
2023-01-17T08:46:39.579Z,3.43
2023-01-17T08:47:39.559Z,3.49
2023-01-17T08:48:39.581Z,3.58
2023-01-17T08:49:39.539Z,3.60
2023-01-17T08:50:39.524Z,3.57
2023-01-17T08:51:39.527Z,3.78
2023-01-17T08:52:39.511Z,3.76
2023-01-17T08:53:39.492Z,3.86
2023-01-17T08:54:39.508Z,3.86
2023-01-17T08:55:39.476Z,3.82
2023-01-17T08:56:39.464Z,3.90
2023-01-17T08:57:39.502Z,3.90
2023-01-17T08:58:39.445Z,3.96
2023-01-17T08:59:39.436Z,4.01
2023-01-17T09:00:39.440Z,3.92
2023-01-17T09:01:39.578Z,3.92
2023-01-17T09:02:39.413Z,4.06
2023-01-17T09:03:40.918Z,3.89
2023-01-17T09:04:39.456Z,3.98
2023-01-17T09:05:39.358Z,3.88
2023-01-17T09:06:39.376Z,3.92
2023-01-17T09:07:39.371Z,3.89
2023-01-17T09:08:39.328Z,3.85
2023-01-17T09:09:39.324Z,3.85
2023-01-17T09:10:39.295Z,3.78
2023-01-17T09:11:39.294Z,3.80
2023-01-17T09:12:39.298Z,3.79
2023-01-17T09:13:39.295Z,3.79
2023-01-17T09:14:39.254Z,3.94
2023-01-17T09:15:39.253Z,3.86
2023-01-17T09:16:39.271Z,3.89
2023-01-17T09:17:39.255Z,3.76
2023-01-17T09:18:39.207Z,3.80
2023-01-17T09:19:39.207Z,3.79
2023-01-17T09:20:39.203Z,3.85
2023-01-17T09:21:39.178Z,3.78
2023-01-17T09:22:39.191Z,3.92
2023-01-17T09:23:39.182Z,3.85
2023-01-17T09:24:39.149Z,3.83
2023-01-17T09:25:39.137Z,4.03
2023-01-17T09:26:39.116Z,3.96
2023-01-17T09:27:39.135Z,4.08
2023-01-17T09:28:39.104Z,4.01
2023-01-17T09:29:39.106Z,4.04
2023-01-17T09:30:39.129Z,4.00
2023-01-17T09:31:39.079Z,4.01
2023-01-17T09:32:39.081Z,4.12
2023-01-17T09:33:39.054Z,4.10
2023-01-17T09:34:39.042Z,4.10
2023-01-17T09:35:39.031Z,4.06
2023-01-17T09:36:39.034Z,4.10
2023-01-17T09:37:39.030Z,4.04
2023-01-17T09:38:38.994Z,4.16
2023-01-17T09:39:38.993Z,4.16
2023-01-17T09:40:38.970Z,4.14
2023-01-17T09:41:38.950Z,4.04
2023-01-17T09:42:38.961Z,4.15
2023-01-17T09:43:40.833Z,4.14
2023-01-17T09:44:38.925Z,4.14
2023-01-17T09:45:38.941Z,4.06
2023-01-17T09:46:38.904Z,4.19
2023-01-17T09:47:38.902Z,4.29
2023-01-17T09:48:38.916Z,4.25
2023-01-17T09:49:38.869Z,4.25
2023-01-17T09:50:38.848Z,4.21
2023-01-17T09:51:38.838Z,4.22
2023-01-17T09:52:38.885Z,4.26
2023-01-17T09:53:38.812Z,4.33
2023-01-17T09:54:38.803Z,4.33
2023-01-17T09:55:38.800Z,4.22
2023-01-17T09:56:38.780Z,4.39
2023-01-17T09:57:38.780Z,4.26
2023-01-17T09:58:38.761Z,4.24
2023-01-17T09:59:38.753Z,4.25
2023-01-17T10:00:38.756Z,4.29
2023-01-17T10:01:38.908Z,4.29
2023-01-17T10:02:38.914Z,4.39
2023-01-17T10:03:38.996Z,4.42
2023-01-17T10:04:38.690Z,4.40
2023-01-17T10:05:38.690Z,4.43
2023-01-17T10:06:38.680Z,4.42
2023-01-17T10:07:38.686Z,4.29
2023-01-17T10:08:38.704Z,4.40
2023-01-17T10:09:38.641Z,4.39
2023-01-17T10:10:38.638Z,4.36
2023-01-17T10:11:38.624Z,4.47
2023-01-17T10:12:38.628Z,4.39
2023-01-17T10:13:38.641Z,4.51
2023-01-17T10:14:38.590Z,4.51
2023-01-17T10:15:38.563Z,4.69
2023-01-17T10:16:38.648Z,4.65
2023-01-17T10:17:38.576Z,4.73
2023-01-17T10:18:38.533Z,4.89
2023-01-17T10:19:38.530Z,4.91
2023-01-17T10:20:38.543Z,4.96
2023-01-17T10:21:38.522Z,5.16
2023-01-17T10:22:38.561Z,5.30
2023-01-17T10:23:38.487Z,5.64
2023-01-17T10:24:38.518Z,5.75
2023-01-17T10:25:38.461Z,6.01
2023-01-17T10:26:38.466Z,6.00
2023-01-17T10:27:38.470Z,6.13
2023-01-17T10:28:38.419Z,6.25
2023-01-17T10:29:38.407Z,6.53
2023-01-17T10:30:38.468Z,6.46
2023-01-17T10:31:38.385Z,6.65
2023-01-17T10:32:38.386Z,6.71
2023-01-17T10:33:38.370Z,6.73
2023-01-17T10:34:38.365Z,6.73
2023-01-17T10:35:38.334Z,6.59
2023-01-17T10:36:38.328Z,6.33
2023-01-17T10:37:38.325Z,6.14
2023-01-17T10:38:38.332Z,5.96
2023-01-17T10:39:38.292Z,5.83
2023-01-17T10:40:38.310Z,5.63
2023-01-17T10:41:38.293Z,5.66
2023-01-17T10:42:38.280Z,5.55
2023-01-17T10:43:38.255Z,5.46
2023-01-17T10:44:38.239Z,5.37
2023-01-17T10:45:38.236Z,5.28
2023-01-17T10:46:38.230Z,5.19
2023-01-17T10:47:38.228Z,5.14
2023-01-17T10:48:38.193Z,4.91
2023-01-17T10:49:38.177Z,4.98
2023-01-17T10:50:38.169Z,4.72
2023-01-17T10:51:38.154Z,4.67
2023-01-17T10:52:38.181Z,4.73
2023-01-17T10:53:38.130Z,4.67
2023-01-17T10:54:38.123Z,4.67
2023-01-17T10:55:38.108Z,4.62
2023-01-17T10:56:38.135Z,4.62
2023-01-17T10:57:38.108Z,4.64
2023-01-17T10:58:38.078Z,4.65
2023-01-17T10:59:38.083Z,4.55
2023-01-17T11:00:38.076Z,4.59
2023-01-17T11:01:38.185Z,4.50
2023-01-17T11:02:38.110Z,4.64
2023-01-17T11:03:38.032Z,4.70
2023-01-17T11:04:38.031Z,4.51
2023-01-17T11:05:37.994Z,4.62
2023-01-17T11:06:49.731Z,4.69
2023-01-17T11:07:40.138Z,4.89
2023-01-17T11:08:37.964Z,5.14
2023-01-17T11:09:37.981Z,5.25
2023-01-17T11:10:37.957Z,5.38
2023-01-17T11:11:37.930Z,5.56
2023-01-17T11:12:37.968Z,5.74
2023-01-17T11:13:37.906Z,6.25
2023-01-17T11:14:37.939Z,6.59
2023-01-17T11:15:37.909Z,6.94
2023-01-17T11:16:37.887Z,7.09
2023-01-17T11:17:37.875Z,7.35
2023-01-17T11:18:37.851Z,7.55
2023-01-17T11:19:37.850Z,7.72
2023-01-17T11:20:37.827Z,7.92
2023-01-17T11:21:37.813Z,8.20
2023-01-17T11:22:37.821Z,8.33
2023-01-17T11:23:37.803Z,8.55
2023-01-17T11:24:37.797Z,8.72
2023-01-17T11:25:37.784Z,8.78
2023-01-17T11:26:37.781Z,8.91
2023-01-17T11:27:37.771Z,9.09
2023-01-17T11:28:37.772Z,9.27
2023-01-17T11:29:37.735Z,9.42
2023-01-17T11:30:37.717Z,9.76
2023-01-17T11:31:37.715Z,9.89
2023-01-17T11:32:37.702Z,10.18
2023-01-17T11:33:37.677Z,10.37
2023-01-17T11:34:37.670Z,10.59
2023-01-17T11:35:37.664Z,10.71
2023-01-17T11:36:37.662Z,10.71
2023-01-17T11:37:37.655Z,10.60
2023-01-17T11:38:37.636Z,10.66
2023-01-17T11:39:37.610Z,10.65
2023-01-17T11:40:37.610Z,10.66
2023-01-17T11:41:37.598Z,10.89
2023-01-17T11:42:37.611Z,10.91
2023-01-17T11:43:37.579Z,11.02
2023-01-17T11:44:37.595Z,11.17
2023-01-17T11:45:37.557Z,11.32
2023-01-17T11:46:37.582Z,11.36
2023-01-17T11:47:37.524Z,11.46
2023-01-17T11:48:37.550Z,11.61
2023-01-17T11:49:37.512Z,11.70
2023-01-17T11:50:37.513Z,11.90
2023-01-17T11:51:37.491Z,11.89
2023-01-17T11:52:37.501Z,12.13
2023-01-17T11:53:37.471Z,12.29
2023-01-17T11:54:37.441Z,12.38
2023-01-17T11:55:37.443Z,12.39
2023-01-17T11:56:37.417Z,12.49
2023-01-17T11:57:37.427Z,12.60
2023-01-17T11:58:37.417Z,12.51
2023-01-17T11:59:37.401Z,12.62
2023-01-17T12:00:37.407Z,12.74
2023-01-17T12:01:37.371Z,12.78
2023-01-17T12:02:37.350Z,12.87
2023-01-17T12:03:37.449Z,12.85
2023-01-17T12:04:37.380Z,13.00
2023-01-17T12:05:37.324Z,12.85
2023-01-17T12:06:51.554Z,12.45
2023-01-17T12:07:38.307Z,12.24
2023-01-17T12:08:37.313Z,11.93
2023-01-17T12:09:37.266Z,11.67
2023-01-17T12:10:37.261Z,11.24
2023-01-17T12:11:37.244Z,10.70
2023-01-17T12:12:37.238Z,10.53
2023-01-17T12:13:37.256Z,10.65
2023-01-17T12:14:37.232Z,10.53
2023-01-17T12:15:37.243Z,10.24
2023-01-17T12:16:37.231Z,9.99
2023-01-17T12:17:37.190Z,9.85
2023-01-17T12:18:37.184Z,9.67
2023-01-17T12:19:37.187Z,9.43
2023-01-17T12:20:37.158Z,9.43
2023-01-17T12:21:37.129Z,9.35
2023-01-17T12:22:37.122Z,9.40
2023-01-17T12:23:37.117Z,9.53
2023-01-17T12:24:37.100Z,9.48
2023-01-17T12:25:37.102Z,9.35
2023-01-17T12:26:37.108Z,9.35
2023-01-17T12:27:37.064Z,9.34
2023-01-17T12:28:37.079Z,9.39
2023-01-17T12:29:37.040Z,9.43
2023-01-17T12:30:37.033Z,9.32
2023-01-17T12:31:37.113Z,9.12
2023-01-17T12:32:37.043Z,8.99
2023-01-17T12:33:37.031Z,8.99
2023-01-17T12:34:36.989Z,8.97
2023-01-17T12:35:36.973Z,8.97
2023-01-17T12:36:36.966Z,8.87
2023-01-17T12:37:37.152Z,9.05
2023-01-17T12:38:36.967Z,9.02
2023-01-17T12:39:36.992Z,8.99
2023-01-17T12:40:36.933Z,8.79
2023-01-17T12:41:36.912Z,8.42
2023-01-17T12:42:36.896Z,8.15
2023-01-17T12:43:36.896Z,8.00
2023-01-17T12:44:36.885Z,8.07
2023-01-17T12:45:36.858Z,7.92
2023-01-17T12:46:36.906Z,7.82
2023-01-17T12:47:36.848Z,7.94
2023-01-17T12:48:36.878Z,8.15
2023-01-17T12:49:36.830Z,8.12
2023-01-17T12:50:36.817Z,8.35
2023-01-17T12:51:36.801Z,8.44
2023-01-17T12:52:36.783Z,8.62
2023-01-17T12:53:36.801Z,8.78
2023-01-17T12:54:36.825Z,9.15
2023-01-17T12:55:36.770Z,9.25
2023-01-17T12:56:36.738Z,9.30
2023-01-17T12:57:36.745Z,9.01
2023-01-17T12:58:36.739Z,8.83
2023-01-17T12:59:36.701Z,8.62
2023-01-17T13:00:36.749Z,8.35
2023-01-17T13:01:36.900Z,8.08
2023-01-17T13:02:36.681Z,7.84
2023-01-17T13:03:36.684Z,7.71
2023-01-17T13:04:42.013Z,7.47
2023-01-17T13:05:37.629Z,7.32
2023-01-17T13:06:36.623Z,7.27
2023-01-17T13:07:36.616Z,7.44
2023-01-17T13:08:36.616Z,7.47
2023-01-17T13:09:36.621Z,7.85
2023-01-17T13:10:36.599Z,7.93
2023-01-17T13:11:36.615Z,8.04
2023-01-17T13:12:36.588Z,8.21
2023-01-17T13:13:36.566Z,8.22
2023-01-17T13:14:36.619Z,8.51
2023-01-17T13:15:36.521Z,8.83
2023-01-17T13:16:36.536Z,8.91
2023-01-17T13:17:36.494Z,9.23
2023-01-17T13:18:36.503Z,9.38
2023-01-17T13:19:36.485Z,9.60
2023-01-17T13:20:36.503Z,9.70
2023-01-17T13:21:36.472Z,9.79
2023-01-17T13:22:36.439Z,9.67
2023-01-17T13:23:36.437Z,9.70
2023-01-17T13:24:36.449Z,9.64
2023-01-17T13:25:36.401Z,9.34
2023-01-17T13:26:36.525Z,9.23
2023-01-17T13:27:36.399Z,9.31
2023-01-17T13:28:36.400Z,9.42
2023-01-17T13:29:36.373Z,9.39
2023-01-17T13:30:36.361Z,9.57
2023-01-17T13:31:36.393Z,9.61
2023-01-17T13:32:36.339Z,9.76
2023-01-17T13:33:36.339Z,9.70
2023-01-17T13:34:36.316Z,9.70
2023-01-17T13:35:36.304Z,9.81
2023-01-17T13:36:36.319Z,9.94
2023-01-17T13:37:36.273Z,9.94
2023-01-17T13:38:36.285Z,9.86
2023-01-17T13:39:36.239Z,9.93
2023-01-17T13:40:36.244Z,9.91
2023-01-17T13:41:36.231Z,9.89
2023-01-17T13:42:36.226Z,9.70
2023-01-17T13:43:36.236Z,9.42
2023-01-17T13:44:36.202Z,9.01
2023-01-17T13:45:36.330Z,8.62
2023-01-17T13:46:36.165Z,8.32
2023-01-17T13:47:36.170Z,8.11
2023-01-17T13:48:36.173Z,7.81
2023-01-17T13:49:36.124Z,7.50
2023-01-17T13:50:36.130Z,7.35
2023-01-17T13:51:36.117Z,7.13
2023-01-17T13:52:36.125Z,6.99
2023-01-17T13:53:36.111Z,6.99
2023-01-17T13:54:36.092Z,6.91
2023-01-17T13:55:36.059Z,6.81
2023-01-17T13:56:36.081Z,6.77
2023-01-17T13:57:36.076Z,6.69
2023-01-17T13:58:36.059Z,6.72
2023-01-17T13:59:36.035Z,6.50
2023-01-17T14:00:36.065Z,6.56
2023-01-17T14:01:36.118Z,6.40
2023-01-17T14:02:36.170Z,6.29
2023-01-17T14:03:35.990Z,6.30
2023-01-17T14:04:35.969Z,6.25
2023-01-17T14:05:35.961Z,6.33
2023-01-17T14:06:35.954Z,6.30
2023-01-17T14:07:35.928Z,6.29
2023-01-17T14:08:35.965Z,6.35
2023-01-17T14:09:35.906Z,6.36
2023-01-17T14:10:35.907Z,6.38
2023-01-17T14:11:35.891Z,6.16
2023-01-17T14:12:35.870Z,6.19
2023-01-17T14:13:35.910Z,6.26
2023-01-17T14:14:35.844Z,6.14
2023-01-17T14:15:35.837Z,6.19
2023-01-17T14:16:35.896Z,6.18
2023-01-17T14:17:35.847Z,6.19
2023-01-17T14:18:35.811Z,6.13
2023-01-17T14:19:35.798Z,6.10
2023-01-17T14:20:35.788Z,6.13
2023-01-17T14:21:35.791Z,6.13
2023-01-17T14:22:35.779Z,6.13
2023-01-17T14:23:35.763Z,6.11
2023-01-17T14:24:35.751Z,6.09
2023-01-17T14:25:35.736Z,6.09
2023-01-17T14:26:36.521Z,6.07
2023-01-17T14:27:36.994Z,6.01
2023-01-17T14:28:35.707Z,5.95
2023-01-17T14:29:35.679Z,6.03
2023-01-17T14:30:35.678Z,5.93
2023-01-17T14:31:35.725Z,5.98
2023-01-17T14:32:35.671Z,5.92
2023-01-17T14:33:35.632Z,5.95
2023-01-17T14:34:35.619Z,5.89
2023-01-17T14:35:35.630Z,5.73
2023-01-17T14:36:35.598Z,5.78
2023-01-17T14:37:35.621Z,5.77
2023-01-17T14:38:35.589Z,5.82
2023-01-17T14:39:35.580Z,5.77
2023-01-17T14:40:35.596Z,5.74
2023-01-17T14:41:35.543Z,5.73
2023-01-17T14:42:35.560Z,5.70
2023-01-17T14:43:35.526Z,5.70
2023-01-17T14:44:35.518Z,5.71
2023-01-17T14:45:35.561Z,5.70
2023-01-17T14:46:35.481Z,5.60
2023-01-17T14:47:35.502Z,5.52
2023-01-17T14:48:35.472Z,5.66
2023-01-17T14:49:35.475Z,5.74
2023-01-17T14:50:35.469Z,5.56
2023-01-17T14:51:35.432Z,5.56
2023-01-17T14:52:35.441Z,5.66
2023-01-17T14:53:35.409Z,5.59
2023-01-17T14:54:35.390Z,5.66
2023-01-17T14:55:35.404Z,5.60
2023-01-17T14:56:35.405Z,5.53
2023-01-17T14:57:35.405Z,5.57
2023-01-17T14:58:35.360Z,5.53
2023-01-17T14:59:35.345Z,5.59
2023-01-17T15:00:35.337Z,5.52
2023-01-17T15:01:35.405Z,5.53
2023-01-17T15:02:35.585Z,5.55
2023-01-17T15:03:35.320Z,5.66
2023-01-17T15:04:35.289Z,5.56
2023-01-17T15:05:35.309Z,5.53
2023-01-17T15:06:35.268Z,5.56
2023-01-17T15:07:35.261Z,5.53
2023-01-17T15:08:35.250Z,5.50
2023-01-17T15:09:35.238Z,5.53
2023-01-17T15:10:35.226Z,5.49
2023-01-17T15:11:35.216Z,5.43
2023-01-17T15:12:35.235Z,5.45
2023-01-17T15:13:43.852Z,5.41
2023-01-17T15:14:36.163Z,5.43
2023-01-17T15:15:35.182Z,5.43
2023-01-17T15:16:35.261Z,5.43
2023-01-17T15:17:35.149Z,5.41
2023-01-17T15:18:35.136Z,5.40
2023-01-17T15:19:35.113Z,5.40
2023-01-17T15:20:35.099Z,5.30
2023-01-17T15:21:35.089Z,5.32
2023-01-17T15:22:35.099Z,5.38
2023-01-17T15:23:35.096Z,5.34
2023-01-17T15:24:35.051Z,5.31
2023-01-17T15:25:35.067Z,5.34
2023-01-17T15:26:35.042Z,5.34
2023-01-17T15:27:35.041Z,5.27
2023-01-17T15:28:35.034Z,5.35
2023-01-17T15:29:35.002Z,5.23
2023-01-17T15:30:35.017Z,5.16
2023-01-17T15:31:34.991Z,5.09
2023-01-17T15:32:34.988Z,5.07
2023-01-17T15:33:34.970Z,5.07
2023-01-17T15:34:34.941Z,5.01
2023-01-17T15:35:34.930Z,4.89
2023-01-17T15:36:34.933Z,4.95
2023-01-17T15:37:34.935Z,4.99
2023-01-17T15:38:38.950Z,4.89
2023-01-17T15:39:34.909Z,4.89
2023-01-17T15:40:34.873Z,4.88
2023-01-17T15:41:34.889Z,4.88
2023-01-17T15:42:34.859Z,4.80
2023-01-17T15:43:34.839Z,4.77
2023-01-17T15:44:49.642Z,4.79
2023-01-17T15:45:35.816Z,4.77
2023-01-17T15:46:34.802Z,4.76
2023-01-17T15:47:34.819Z,4.61
2023-01-17T15:48:34.799Z,4.58
2023-01-17T15:49:34.777Z,4.57
2023-01-17T15:50:34.755Z,4.64
2023-01-17T15:51:34.762Z,4.47
2023-01-17T15:52:34.747Z,4.42
2023-01-17T15:53:34.743Z,4.42
2023-01-17T15:54:34.712Z,4.36
2023-01-17T15:55:34.710Z,4.29
2023-01-17T15:56:34.686Z,4.32
2023-01-17T15:57:36.564Z,4.34
2023-01-17T15:58:34.680Z,4.28
2023-01-17T15:59:34.659Z,4.32
2023-01-17T16:00:34.676Z,4.22
2023-01-17T16:01:34.796Z,4.15
2023-01-17T16:02:34.646Z,4.19
2023-01-17T16:03:34.646Z,4.21
2023-01-17T16:04:34.612Z,4.15
2023-01-17T16:05:34.616Z,4.07
2023-01-17T16:06:34.589Z,4.01
2023-01-17T16:07:34.579Z,4.08
2023-01-17T16:08:35.875Z,4.07
2023-01-17T16:09:34.553Z,4.14
2023-01-17T16:10:34.545Z,4.06
2023-01-17T16:11:34.525Z,4.03
2023-01-17T16:12:34.531Z,4.00
2023-01-17T16:13:34.528Z,3.98
2023-01-17T16:14:53.474Z,4.04
2023-01-17T16:15:35.524Z,3.97
2023-01-17T16:16:34.514Z,3.86
2023-01-17T16:17:34.473Z,3.96
2023-01-17T16:18:34.459Z,3.88
2023-01-17T16:19:34.446Z,3.89
2023-01-17T16:20:34.425Z,3.92
2023-01-17T16:21:34.410Z,3.86
2023-01-17T16:22:34.399Z,3.80
2023-01-17T16:23:34.389Z,3.79
2023-01-17T16:24:34.411Z,3.82
2023-01-17T16:25:34.375Z,3.75
2023-01-17T16:26:34.361Z,3.65
2023-01-17T16:27:34.353Z,3.80
2023-01-17T16:28:34.335Z,3.68
2023-01-17T16:29:34.334Z,3.70
2023-01-17T16:30:34.334Z,3.68
2023-01-17T16:31:34.312Z,3.64
2023-01-17T16:32:34.303Z,3.53
2023-01-17T16:33:34.290Z,3.64
2023-01-17T16:34:34.263Z,3.53
2023-01-17T16:35:34.266Z,3.58
2023-01-17T16:36:34.234Z,3.50
2023-01-17T16:37:34.243Z,3.47
2023-01-17T16:38:34.228Z,3.49
2023-01-17T16:39:34.220Z,3.50
2023-01-17T16:40:34.202Z,3.36
2023-01-17T16:41:34.183Z,3.39
2023-01-17T16:42:34.172Z,3.44
2023-01-17T16:43:34.178Z,3.31
2023-01-17T16:44:34.148Z,3.36
2023-01-17T16:45:34.137Z,3.33
2023-01-17T16:46:34.161Z,3.34
2023-01-17T16:47:34.127Z,3.28
2023-01-17T16:48:34.149Z,3.24
2023-01-17T16:49:34.108Z,3.20
2023-01-17T16:50:34.087Z,3.20
2023-01-17T16:51:34.085Z,3.23
2023-01-17T16:52:34.053Z,3.23
2023-01-17T16:53:34.062Z,3.20
2023-01-17T16:54:34.045Z,3.21
2023-01-17T16:55:34.026Z,3.18
2023-01-17T16:56:34.016Z,3.20
2023-01-17T16:57:34.017Z,3.12
2023-01-17T16:58:34.005Z,3.05
2023-01-17T16:59:49.671Z,3.00
2023-01-17T17:00:34.963Z,3.07
2023-01-17T17:01:34.073Z,2.97
2023-01-17T17:02:33.972Z,3.02
2023-01-17T17:03:33.964Z,3.07
2023-01-17T17:04:33.966Z,2.95
2023-01-17T17:05:33.927Z,2.97
2023-01-17T17:06:33.895Z,2.98
2023-01-17T17:07:33.907Z,2.95
2023-01-17T17:08:33.918Z,2.87
2023-01-17T17:09:33.865Z,2.87
2023-01-17T17:10:33.867Z,2.95
2023-01-17T17:11:33.852Z,2.91
2023-01-17T17:12:33.838Z,2.89
2023-01-17T17:13:33.835Z,2.85
2023-01-17T17:14:33.826Z,2.74
2023-01-17T17:15:33.851Z,2.77
2023-01-17T17:16:33.824Z,2.85
2023-01-17T17:17:33.786Z,2.82
2023-01-17T17:18:33.772Z,2.73
2023-01-17T17:19:33.780Z,2.76
2023-01-17T17:20:33.775Z,2.71
2023-01-17T17:21:33.758Z,2.73
2023-01-17T17:22:33.731Z,2.66
2023-01-17T17:23:33.728Z,2.69
2023-01-17T17:24:33.692Z,2.69
2023-01-17T17:25:33.686Z,2.74
2023-01-17T17:26:33.682Z,2.67
2023-01-17T17:27:33.675Z,2.61
2023-01-17T17:28:33.663Z,2.55
2023-01-17T17:29:33.653Z,2.51
2023-01-17T17:30:33.661Z,2.55
2023-01-17T17:31:33.659Z,2.52
2023-01-17T17:32:33.618Z,2.53
2023-01-17T17:33:33.611Z,2.58
2023-01-17T17:34:33.593Z,2.61
2023-01-17T17:35:33.586Z,2.48
2023-01-17T17:36:33.587Z,2.61
2023-01-17T17:37:34.562Z,2.49
2023-01-17T17:38:33.557Z,2.46
2023-01-17T17:39:33.544Z,2.46
2023-01-17T17:40:33.511Z,2.45
2023-01-17T17:41:33.517Z,2.49
2023-01-17T17:42:33.511Z,2.41
2023-01-17T17:43:33.481Z,2.52
2023-01-17T17:44:33.492Z,2.51
2023-01-17T17:45:33.475Z,2.48
2023-01-17T17:46:33.520Z,2.46
2023-01-17T17:47:33.437Z,2.37
2023-01-17T17:48:33.420Z,2.40
2023-01-17T17:49:33.430Z,2.33
2023-01-17T17:50:33.398Z,2.48
2023-01-17T17:51:33.393Z,2.38
2023-01-17T17:52:33.407Z,2.37
2023-01-17T17:53:33.389Z,2.37
2023-01-17T17:54:33.375Z,2.38
2023-01-17T17:55:33.360Z,2.37
2023-01-17T17:56:33.355Z,2.28
2023-01-17T17:57:33.325Z,2.34
2023-01-17T17:58:33.330Z,2.28
2023-01-17T17:59:33.341Z,2.37
2023-01-17T18:00:33.285Z,2.22
2023-01-17T18:01:33.448Z,2.28
2023-01-17T18:02:33.279Z,2.35
2023-01-17T18:03:33.264Z,2.23
2023-01-17T18:04:33.287Z,2.16
2023-01-17T18:05:33.234Z,2.15
2023-01-17T18:06:33.237Z,2.20
2023-01-17T18:07:33.267Z,2.19
2023-01-17T18:08:33.216Z,2.17
2023-01-17T18:09:33.220Z,2.17
2023-01-17T18:10:33.175Z,2.08
2023-01-17T18:11:33.164Z,2.12
2023-01-17T18:12:33.149Z,2.02
2023-01-17T18:13:33.142Z,2.17
2023-01-17T18:14:33.160Z,2.08
2023-01-17T18:15:33.119Z,2.13
2023-01-17T18:16:33.155Z,2.16
2023-01-17T18:17:33.108Z,2.13
2023-01-17T18:18:33.086Z,2.10
2023-01-17T18:19:33.086Z,2.16
2023-01-17T18:20:33.067Z,2.10
2023-01-17T18:21:33.055Z,2.01
2023-01-17T18:22:33.043Z,2.13
2023-01-17T18:23:33.045Z,2.15
2023-01-17T18:24:33.055Z,2.06
2023-01-17T18:25:34.147Z,1.94
2023-01-17T18:26:33.000Z,2.08
2023-01-17T18:27:32.986Z,1.98
2023-01-17T18:28:32.995Z,2.01
2023-01-17T18:29:32.971Z,1.91
2023-01-17T18:30:32.968Z,1.89
2023-01-17T18:31:33.018Z,1.97
2023-01-17T18:32:32.928Z,1.89
2023-01-17T18:33:32.913Z,1.89
2023-01-17T18:34:32.920Z,1.90
2023-01-17T18:35:32.905Z,1.83
2023-01-17T18:36:32.895Z,1.83
2023-01-17T18:37:32.880Z,1.97
2023-01-17T18:38:32.874Z,1.94
2023-01-17T18:39:32.849Z,1.91
2023-01-17T18:40:32.884Z,1.93
2023-01-17T18:41:32.829Z,1.94
2023-01-17T18:42:32.832Z,2.08
2023-01-17T18:43:32.820Z,1.99
2023-01-17T18:44:32.795Z,1.91
2023-01-17T18:45:32.806Z,1.91
2023-01-17T18:46:32.809Z,1.97
2023-01-17T18:47:32.767Z,1.85
2023-01-17T18:48:32.747Z,1.79
2023-01-17T18:49:32.757Z,1.78
2023-01-17T18:50:32.767Z,1.83
2023-01-17T18:51:32.745Z,1.72
2023-01-17T18:52:32.722Z,1.73
2023-01-17T18:53:32.698Z,1.78
2023-01-17T18:54:32.704Z,1.73
2023-01-17T18:55:32.683Z,1.78
2023-01-17T18:56:32.700Z,1.72
2023-01-17T18:57:32.672Z,1.61
2023-01-17T18:58:32.633Z,1.64
2023-01-17T18:59:32.632Z,1.62
2023-01-17T19:00:32.670Z,1.62
2023-01-17T19:01:35.354Z,1.52
2023-01-17T19:02:32.622Z,1.58
2023-01-17T19:03:32.621Z,1.54
2023-01-17T19:04:32.583Z,1.60
2023-01-17T19:05:32.571Z,1.61
2023-01-17T19:06:32.544Z,1.50
2023-01-17T19:07:32.542Z,1.46
2023-01-17T19:08:32.535Z,1.55
2023-01-17T19:09:32.518Z,1.50
2023-01-17T19:10:32.534Z,1.46
2023-01-17T19:11:32.498Z,1.54
2023-01-17T19:12:32.513Z,1.46
2023-01-17T19:13:32.494Z,1.42
2023-01-17T19:14:32.467Z,1.37
2023-01-17T19:15:32.465Z,1.40
2023-01-17T19:16:32.543Z,1.39
2023-01-17T19:17:32.431Z,1.43
2023-01-17T19:18:32.423Z,1.40
2023-01-17T19:19:32.431Z,1.16
2023-01-17T19:20:32.415Z,1.25
2023-01-17T19:21:32.389Z,1.26
2023-01-17T19:22:32.363Z,1.24
2023-01-17T19:23:32.364Z,1.24
2023-01-17T19:24:32.342Z,1.10
2023-01-17T19:25:32.359Z,1.15
2023-01-17T19:26:32.358Z,1.12
2023-01-17T19:27:32.311Z,1.21
2023-01-17T19:28:34.695Z,1.10
2023-01-17T19:29:32.282Z,1.07
2023-01-17T19:30:32.295Z,1.08
2023-01-17T19:31:32.344Z,1.07
2023-01-17T19:32:32.262Z,1.10
2023-01-17T19:33:32.258Z,1.12
2023-01-17T19:34:32.234Z,1.22
2023-01-17T19:35:32.228Z,1.16
2023-01-17T19:36:32.223Z,1.06
2023-01-17T19:37:32.191Z,0.98
2023-01-17T19:38:32.200Z,1.08
2023-01-17T19:39:32.184Z,1.03
2023-01-17T19:40:32.176Z,1.15
2023-01-17T19:41:32.140Z,1.12
2023-01-17T19:42:32.147Z,1.03
2023-01-17T19:43:32.171Z,1.04
2023-01-17T19:44:32.147Z,1.08
2023-01-17T19:45:32.242Z,1.10
2023-01-17T19:46:32.112Z,1.06
2023-01-17T19:47:32.093Z,1.10
2023-01-17T19:48:32.078Z,1.12
2023-01-17T19:49:32.068Z,1.06
2023-01-17T19:50:32.057Z,0.96
2023-01-17T19:51:32.033Z,1.15
2023-01-17T19:52:32.040Z,1.00
2023-01-17T19:53:32.010Z,1.06
2023-01-17T19:54:32.006Z,1.01
2023-01-17T19:55:32.009Z,1.00
2023-01-17T19:56:31.993Z,0.90
2023-01-17T19:57:31.987Z,1.03
2023-01-17T19:58:31.977Z,0.97
2023-01-17T19:59:31.945Z,0.92
2023-01-17T20:00:31.972Z,0.98
2023-01-17T20:01:32.256Z,0.92
2023-01-17T20:02:31.987Z,1.01
2023-01-17T20:03:31.897Z,0.94
2023-01-17T20:04:31.892Z,0.92
2023-01-17T20:05:31.901Z,0.89
2023-01-17T20:06:31.891Z,0.88
2023-01-17T20:07:31.869Z,0.88
2023-01-17T20:08:31.861Z,0.88
2023-01-17T20:09:31.834Z,0.83
2023-01-17T20:10:31.840Z,0.96
2023-01-17T20:11:31.830Z,0.92
2023-01-17T20:12:31.813Z,0.90
2023-01-17T20:13:31.807Z,0.86
2023-01-17T20:14:31.780Z,0.88
2023-01-17T20:15:31.778Z,0.88
2023-01-17T20:16:31.880Z,0.82
2023-01-17T20:17:33.881Z,0.79
2023-01-17T20:18:31.749Z,0.80
2023-01-17T20:19:31.735Z,0.80
2023-01-17T20:20:31.733Z,0.76
2023-01-17T20:21:31.714Z,0.75
2023-01-17T20:22:31.693Z,0.76
2023-01-17T20:23:31.670Z,0.70
2023-01-17T20:24:31.680Z,0.75
2023-01-17T20:25:31.662Z,0.79
2023-01-17T20:26:31.700Z,0.75
2023-01-17T20:27:31.642Z,0.67
2023-01-17T20:28:31.619Z,0.76
2023-01-17T20:29:31.607Z,0.70
2023-01-17T20:30:31.595Z,0.58
2023-01-17T20:31:31.645Z,0.64
2023-01-17T20:32:31.596Z,0.60
2023-01-17T20:33:31.573Z,0.49
2023-01-17T20:34:31.569Z,0.61
2023-01-17T20:35:31.552Z,0.65
2023-01-17T20:36:31.543Z,0.48
2023-01-17T20:37:31.514Z,0.42
2023-01-17T20:38:31.508Z,0.41
2023-01-17T20:39:31.512Z,0.42
2023-01-17T20:40:31.499Z,0.48
2023-01-17T20:41:31.487Z,0.49
2023-01-17T20:42:31.464Z,0.41
2023-01-17T20:43:31.470Z,0.39
2023-01-17T20:44:31.454Z,0.38
2023-01-17T20:45:31.447Z,0.45
2023-01-17T20:46:31.441Z,0.33
2023-01-17T20:47:31.419Z,0.43
2023-01-17T20:48:32.006Z,0.43
2023-01-17T20:49:31.382Z,0.34
2023-01-17T20:50:31.371Z,0.23
2023-01-17T20:51:31.439Z,0.33
2023-01-17T20:52:31.353Z,0.38
2023-01-17T20:53:32.103Z,0.30
2023-01-17T20:54:31.330Z,0.34
2023-01-17T20:55:31.316Z,0.33
2023-01-17T20:56:31.318Z,0.41
2023-01-17T20:57:31.331Z,0.34
2023-01-17T20:58:31.279Z,0.27
2023-01-17T20:59:31.278Z,0.33
2023-01-17T21:00:31.271Z,0.24
2023-01-17T21:01:31.452Z,0.24